Time;durP1;ratioP1;P1;durP2;ratioP2;P2;SDS_P1;SDS_P2;PMS_P1;PMS_P2;Temp;Humidity;BMP_temperature;BMP_pressure;BME280_temperature;BME280_humidity;BME280_pressure;Samples;Min_cycle;Max_cycle;Signal;HPM_P1;HPM_P2
2023/02/15 00:01:13;;;;;;;21.17;7.82;;;10.10;49.30;;;;;;7566626;23;20010;-66
2023/02/15 00:04:17;;;;;;;19.90;8.10;;;10.10;49.40;;;;;;7566754;23;20089;-67
2023/02/15 00:07:19;;;;;;;26.27;8.77;;;10.00;49.60;;;;;;7568014;23;20013;-65
2023/02/15 00:10:20;;;;;;;18.52;7.95;;;9.80;49.60;;;;;;7568869;23;20278;-67
2023/02/15 00:13:20;;;;;;;17.55;8.20;;;9.90;50.40;;;;;;7568769;23;20006;-66
2023/02/15 00:16:21;;;;;;;25.83;9.13;;;9.40;49.70;;;;;;7569093;23;20085;-67
2023/02/15 00:19:22;;;;;;;22.52;8.25;;;9.90;50.10;;;;;;7570624;23;20038;-66
2023/02/15 00:22:23;;;;;;;20.45;8.98;;;9.90;50.10;;;;;;7573423;23;20103;-65
2023/02/15 00:25:24;;;;;;;20.83;8.38;;;9.90;50.20;;;;;;7571062;23;20030;-68
2023/02/15 00:28:25;;;;;;;20.55;8.93;;;9.80;50.30;;;;;;7568280;23;20025;-66
2023/02/15 00:31:28;;;;;;;24.40;8.75;;;9.80;50.30;;;;;;7567105;23;20123;-67
2023/02/15 00:34:30;;;;;;;26.42;9.63;;;9.80;50.20;;;;;;7566803;23;20019;-68
2023/02/15 00:37:31;;;;;;;24.05;8.73;;;9.80;50.20;;;;;;7568041;23;20014;-68
2023/02/15 00:40:32;;;;;;;22.00;9.07;;;9.80;50.10;;;;;;7566577;23;20007;-67
2023/02/15 00:43:34;;;;;;;20.08;8.55;;;9.80;50.00;;;;;;7568285;23;20014;-66
2023/02/15 00:46:36;;;;;;;22.25;9.55;;;9.90;50.10;;;;;;7566501;23;20010;-67
2023/02/15 00:49:37;;;;;;;18.17;8.23;;;9.80;50.10;;;;;;7566299;23;20472;-66
2023/02/15 00:52:37;;;;;;;21.48;8.88;;;9.80;50.20;;;;;;7566482;23;20057;-66
2023/02/15 00:55:40;;;;;;;29.90;9.65;;;9.80;50.30;;;;;;7566391;23;20010;-67
2023/02/15 00:58:41;;;;;;;21.95;8.82;;;9.70;50.50;;;;;;7565689;23;20010;-65
2023/02/15 01:01:43;;;;;;;23.10;8.00;;;9.60;50.50;;;;;;7566571;23;20463;-66
2023/02/15 01:04:44;;;;;;;21.48;8.30;;;9.60;50.70;;;;;;7567926;23;20010;-67
2023/02/15 01:07:45;;;;;;;22.58;7.53;;;9.20;50.50;;;;;;7566121;23;20074;-68
2023/02/15 01:10:47;;;;;;;17.90;8.68;;;9.50;50.60;;;;;;7567781;23;20117;-66
2023/02/15 01:13:53;;;;;;;17.52;7.60;;;9.50;50.60;;;;;;7566208;23;20037;-66
2023/02/15 01:16:54;;;;;;;19.98;8.05;;;9.50;50.60;;;;;;7567125;23;20034;-67
2023/02/15 01:19:55;;;;;;;21.63;9.13;;;9.50;50.60;;;;;;7567423;23;20077;-66
2023/02/15 01:22:58;;;;;;;23.25;9.02;;;9.60;50.60;;;;;;7566131;23;20006;-68
2023/02/15 01:26:02;;;;;;;25.27;9.13;;;9.50;50.60;;;;;;7567903;23;20152;-65
2023/02/15 01:29:03;;;;;;;27.45;9.90;;;9.60;50.70;;;;;;7573913;23;20070;-65
2023/02/15 01:32:03;;;;;;;19.77;9.60;;;9.50;50.70;;;;;;7566399;23;20015;-65
2023/02/15 01:35:05;;;;;;;24.35;9.52;;;9.50;50.60;;;;;;7567500;23;20015;-66
2023/02/15 01:38:06;;;;;;;23.15;9.35;;;9.50;50.60;;;;;;7567058;23;20010;-65
2023/02/15 01:41:20;;;;;;;21.85;8.98;;;9.60;50.70;;;;;;7567424;23;20028;-67
2023/02/15 01:44:48;;;;;;;25.05;9.15;;;9.60;50.70;;;;;;7542019;23;20007;-67
2023/02/15 01:47:58;;;;;;;20.58;8.98;;;9.60;50.70;;;;;;7541377;23;20011;-66
2023/02/15 01:51:01;;;;;;;19.00;7.55;;;9.60;50.70;;;;;;7541905;23;20329;-68
2023/02/15 01:54:29;;;;;;;22.52;8.25;;;9.70;50.80;;;;;;7567411;23;20073;-66
2023/02/15 01:57:31;;;;;;;21.30;9.40;;;9.50;50.70;;;;;;7565273;23;20354;-66
2023/02/15 02:00:33;;;;;;;21.05;8.35;;;9.50;50.70;;;;;;7517816;23;20098;-68
2023/02/15 02:04:04;;;;;;;16.17;8.57;;;9.50;50.80;;;;;;7567103;23;20007;-66
2023/02/15 02:07:07;;;;;;;16.38;7.55;;;9.50;50.90;;;;;;7517658;23;20010;-67
2023/02/15 02:10:10;;;;;;;22.08;7.45;;;9.40;51.10;;;;;;7517701;23;20007;-66
2023/02/15 02:13:11;;;;;;;26.58;7.60;;;9.40;51.20;;;;;;7541431;23;20006;-66
2023/02/15 02:16:36;;;;;;;36.13;8.48;;;9.40;51.40;;;;;;7541909;23;20017;-68
2023/02/15 02:19:50;;;;;;;22.27;7.32;;;9.30;51.50;;;;;;7540753;23;20105;-66
2023/02/15 02:23:00;;;;;;;15.98;7.25;;;9.20;51.70;;;;;;7566801;23;20010;-66
2023/02/15 02:26:37;;;;;;;21.08;7.55;;;9.10;51.80;;;;;;7566857;23;20003;-66
2023/02/15 02:30:12;;;;;;;18.02;8.10;;;9.10;52.00;;;;;;7540834;23;20091;-69
2023/02/15 02:33:40;;;;;;;21.23;7.20;;;9.00;52.10;;;;;;7567014;23;20042;-66
2023/02/15 02:37:19;;;;;;;24.43;7.20;;;9.00;52.10;;;;;;7517495;23;20069;-67
2023/02/15 02:40:34;;;;;;;17.13;6.57;;;8.90;52.10;;;;;;7524027;23;20066;-66
2023/02/15 02:43:58;;;;;;;15.68;6.38;;;9.00;52.10;;;;;;7503593;23;20448;-66
2023/02/15 02:47:08;;;;;;;13.88;7.03;;;9.00;52.00;;;;;;7527517;23;20098;-65
2023/02/15 02:50:15;;;;;;;20.15;6.38;;;9.00;52.00;;;;;;7503675;23;20039;-66
2023/02/15 02:53:16;;;;;;;17.73;6.35;;;9.10;51.90;;;;;;7527834;23;20018;-67
2023/02/15 02:56:23;;;;;;;15.43;6.40;;;9.10;51.80;;;;;;7504064;23;20018;-66
2023/02/15 02:59:31;;;;;;;17.63;6.28;;;9.10;51.80;;;;;;7503023;23;20014;-65
2023/02/15 03:02:37;;;;;;;11.20;5.27;;;9.20;51.70;;;;;;7503526;23;20059;-66
2023/02/15 03:05:43;;;;;;;24.27;7.30;;;9.20;51.70;;;;;;7527573;23;20007;-65
2023/02/15 03:08:50;;;;;;;19.88;7.13;;;9.20;51.70;;;;;;7503850;23;20098;-67
2023/02/15 03:11:51;;;;;;;17.63;7.40;;;9.20;51.70;;;;;;7511721;23;20015;-67
2023/02/15 03:15:15;;;;;;;19.70;8.05;;;9.20;51.60;;;;;;7521415;23;20009;-67
2023/02/15 03:18:19;;;;;;;20.02;8.57;;;9.20;51.60;;;;;;7565391;23;20380;-65
2023/02/15 03:21:41;;;;;;;22.90;9.10;;;9.20;51.70;;;;;;7565619;23;20429;-65
2023/02/15 03:24:51;;;;;;;22.13;9.45;;;9.20;51.70;;;;;;7565120;23;20010;-68
2023/02/15 03:28:03;;;;;;;19.08;8.10;;;9.10;51.90;;;;;;7564742;23;20015;-65
2023/02/15 03:31:08;;;;;;;25.95;8.90;;;9.10;51.90;;;;;;7565600;23;20015;-66
2023/02/15 03:34:13;;;;;;;23.23;7.90;;;9.00;52.10;;;;;;7567074;23;20021;-65
2023/02/15 03:37:26;;;;;;;25.52;9.60;;;8.90;52.20;;;;;;7565010;23;20014;-66
2023/02/15 03:43:59;;;;;;;23.60;9.13;;;8.80;52.40;;;;;;7569130;23;20058;-66
2023/02/15 03:47:13;;;;;;;18.25;8.38;;;8.70;52.40;;;;;;7569120;23;20006;-68
2023/02/15 03:53:56;;;;;;;17.45;8.05;;;8.60;52.60;;;;;;7543431;23;20065;-66
2023/02/15 04:04:03;;;;;;;22.50;7.30;;;8.50;52.90;;;;;;7543551;23;20059;-67
2023/02/15 04:07:06;;;;;;;18.92;7.05;;;8.50;53.60;;;;;;7571411;23;20009;-66
2023/02/15 04:13:31;;;;;;;16.83;6.97;;;8.40;53.30;;;;;;7547202;23;20044;-65
2023/02/15 04:16:32;;;;;;;19.77;7.85;;;8.40;53.40;;;;;;7568912;23;20082;-66
2023/02/15 04:26:11;;;;;;;13.65;6.30;;;8.30;53.30;;;;;;7568566;23;20002;-66
2023/02/15 04:29:12;;;;;;;19.20;7.13;;;8.40;53.30;;;;;;7542391;23;20015;-68
2023/02/15 04:32:13;;;;;;;18.05;7.75;;;8.40;53.40;;;;;;7568402;23;20017;-68
2023/02/15 04:35:14;;;;;;;24.15;8.90;;;8.40;53.50;;;;;;7568286;23;20010;-67
2023/02/15 04:38:15;;;;;;;23.35;8.13;;;8.40;53.60;;;;;;7567692;23;20113;-68
2023/02/15 04:41:16;;;;;;;21.83;8.05;;;8.30;53.70;;;;;;7568277;23;20018;-66
2023/02/15 04:44:17;;;;;;;25.88;7.55;;;8.30;53.80;;;;;;7568339;23;20002;-67
2023/02/15 04:47:18;;;;;;;28.83;8.80;;;8.20;53.90;;;;;;7567938;23;20290;-65
2023/02/15 04:50:19;;;;;;;18.88;7.45;;;8.20;54.10;;;;;;7542806;23;20381;-65
2023/02/15 04:53:20;;;;;;;11.82;6.10;;;8.10;54.20;;;;;;7567612;23;20006;-66
2023/02/15 04:56:21;;;;;;;18.90;7.53;;;8.10;54.30;;;;;;7568254;23;20081;-67
2023/02/15 04:59:22;;;;;;;16.40;6.47;;;8.10;54.40;;;;;;7567641;23;20013;-65
2023/02/15 05:02:22;;;;;;;16.92;6.35;;;8.00;54.40;;;;;;7542486;23;20037;-69
2023/02/15 05:05:23;;;;;;;16.08;6.57;;;8.00;54.60;;;;;;7542550;23;20010;-67
2023/02/15 05:08:24;;;;;;;16.13;7.18;;;8.00;54.70;;;;;;7567674;23;20009;-66
2023/02/15 05:11:26;;;;;;;17.20;6.85;;;7.90;54.70;;;;;;7542146;23;20278;-66
2023/02/15 05:14:27;;;;;;;18.70;5.85;;;7.90;54.70;;;;;;7566466;23;20347;-67
2023/02/15 05:17:28;;;;;;;13.77;6.35;;;7.90;54.70;;;;;;7541822;23;20018;-67
2023/02/15 05:20:29;;;;;;;11.90;5.85;;;7.90;54.70;;;;;;7542109;23;20010;-67
2023/02/15 05:23:29;;;;;;;16.65;6.90;;;7.90;54.70;;;;;;7567574;23;20304;-67
2023/02/15 05:29:50;;;;;;;15.98;7.05;;;7.90;54.80;;;;;;7567318;23;20436;-67
2023/02/15 05:32:50;;;;;;;20.60;6.80;;;7.80;55.00;;;;;;7567790;23;20013;-65
2023/02/15 05:35:51;;;;;;;20.77;6.30;;;7.80;55.10;;;;;;7567793;23;20013;-66
2023/02/15 05:38:52;;;;;;;14.13;6.95;;;7.70;55.10;;;;;;7566910;23;20014;-66
2023/02/15 05:41:53;;;;;;;13.93;6.35;;;7.70;55.20;;;;;;7567708;23;20018;-67
2023/02/15 05:44:54;;;;;;;13.82;5.60;;;7.70;55.30;;;;;;7518053;23;20112;-68
2023/02/15 05:47:55;;;;;;;15.77;6.63;;;7.60;55.40;;;;;;7567127;23;20387;-66
2023/02/15 05:51:08;;;;;;;9.63;5.20;;;7.60;55.40;;;;;;7567413;23;20317;-67
2023/02/15 05:54:09;;;;;;;11.38;5.57;;;7.50;55.50;;;;;;7542010;23;20021;-66
2023/02/15 05:57:10;;;;;;;17.00;6.07;;;7.40;55.60;;;;;;7566994;23;20022;-66
2023/02/15 06:00:12;;;;;;;21.10;6.65;;;7.40;55.80;;;;;;7567725;23;20062;-67
2023/02/15 06:03:13;;;;;;;17.38;7.53;;;7.30;55.70;;;;;;7572258;23;20038;-66
2023/02/15 06:06:14;;;;;;;18.10;7.13;;;7.30;55.90;;;;;;7551152;23;20026;-66
2023/02/15 06:09:18;;;;;;;13.77;7.25;;;7.30;56.00;;;;;;7567448;23;20085;-66
2023/02/15 06:12:19;;;;;;;18.90;8.23;;;7.20;56.10;;;;;;7567478;23;20014;-66
2023/02/15 06:15:19;;;;;;;17.70;6.85;;;7.20;56.80;;;;;;7567535;23;20011;-67
2023/02/15 06:18:21;;;;;;;21.42;7.30;;;7.20;56.40;;;;;;7542091;23;20487;-68
2023/02/15 06:21:21;;;;;;;16.77;7.53;;;7.20;56.40;;;;;;7567262;23;20516;-66
2023/02/15 06:24:22;;;;;;;18.63;7.68;;;7.20;56.30;;;;;;7541890;23;20010;-66
2023/02/15 06:27:23;;;;;;;15.55;6.78;;;7.20;56.30;;;;;;7566691;23;20097;-69
2023/02/15 06:30:24;;;;;;;19.13;7.70;;;7.30;56.30;;;;;;7567229;23;20011;-66
2023/02/15 06:33:25;;;;;;;19.33;7.72;;;7.30;56.20;;;;;;7541329;23;20021;-66
2023/02/15 06:36:29;;;;;;;18.88;6.93;;;7.30;56.20;;;;;;7541535;23;20010;-68
2023/02/15 06:39:30;;;;;;;17.30;7.13;;;7.40;56.20;;;;;;7551513;23;20332;-67
2023/02/15 06:42:31;;;;;;;15.10;7.07;;;7.40;56.10;;;;;;7565712;23;20100;-67
2023/02/15 06:45:32;;;;;;;15.10;7.05;;;7.40;56.10;;;;;;7566269;23;20014;-68
2023/02/15 06:48:32;;;;;;;17.88;7.93;;;7.40;56.10;;;;;;7575630;23;20387;-67
2023/02/15 06:51:36;;;;;;;14.25;6.25;;;7.40;56.00;;;;;;7568829;23;20010;-68
2023/02/15 06:54:37;;;;;;;17.83;6.75;;;7.40;56.00;;;;;;7567884;23;20042;-67
2023/02/15 06:57:38;;;;;;;21.15;7.32;;;7.50;55.90;;;;;;7564612;23;20019;-69
2023/02/15 07:00:39;;;;;;;20.48;6.93;;;7.50;55.90;;;;;;7564959;23;20319;-67
2023/02/15 07:03:40;;;;;;;15.50;6.85;;;7.50;56.00;;;;;;7566508;23;20010;-66
2023/02/15 07:06:41;;;;;;;20.65;6.80;;;7.50;56.00;;;;;;7566924;23;20014;-67
2023/02/15 07:09:42;;;;;;;13.55;6.00;;;7.60;56.00;;;;;;7565932;23;20010;-67
2023/02/15 07:12:44;;;;;;;18.02;5.85;;;7.60;55.90;;;;;;7566629;23;20093;-66
2023/02/15 07:15:46;;;;;;;18.10;7.13;;;7.60;55.90;;;;;;7566067;23;20337;-69
2023/02/15 07:18:47;;;;;;;18.75;7.07;;;7.70;55.80;;;;;;7566279;23;20077;-69
2023/02/15 07:21:48;;;;;;;20.50;6.78;;;7.70;55.70;;;;;;7564830;23;20010;-68
2023/02/15 07:24:49;;;;;;;22.70;6.97;;;7.70;55.70;;;;;;7566575;23;20057;-67
2023/02/15 07:27:58;;;;;;;13.52;6.00;;;7.70;55.70;;;;;;7564625;23;20329;-67
2023/02/15 07:31:02;;;;;;;21.67;8.10;;;7.70;55.50;;;;;;7565920;23;20025;-67
2023/02/15 07:34:06;;;;;;;20.02;5.75;;;7.70;55.50;;;;;;7566350;23;20033;-68
2023/02/15 07:37:07;;;;;;;12.20;5.60;;;7.70;55.40;;;;;;7565776;23;20010;-66
2023/02/15 07:40:08;;;;;;;17.20;7.88;;;7.60;55.40;;;;;;7565653;23;20015;-67
2023/02/15 07:43:09;;;;;;;24.58;7.60;;;7.50;55.60;;;;;;7566566;23;20336;-67
2023/02/15 07:46:13;;;;;;;28.35;7.13;;;7.40;55.80;;;;;;7540806;23;20018;-66
2023/02/15 07:49:14;;;;;;;16.40;6.82;;;7.30;55.80;;;;;;7565764;23;20010;-67
2023/02/15 07:52:15;;;;;;;15.45;7.47;;;7.30;56.10;;;;;;7565936;23;20014;-67
2023/02/15 07:55:16;;;;;;;15.20;7.80;;;7.30;56.20;;;;;;7566178;23;20344;-67
2023/02/15 07:58:17;;;;;;;22.73;7.95;;;7.30;56.30;;;;;;7565582;23;20010;-67
2023/02/15 08:01:24;;;;;;;17.38;7.75;;;7.30;56.40;;;;;;7566461;23;20017;-68
2023/02/15 08:04:25;;;;;;;14.55;6.80;;;7.30;56.50;;;;;;7564810;23;20021;-67
2023/02/15 08:07:26;;;;;;;16.92;6.80;;;7.30;56.50;;;;;;7539910;23;20006;-67
2023/02/15 08:11:25;;;;;;;19.77;7.10;;;7.40;56.60;;;;;;7566139;23;20014;-68
2023/02/15 08:13:56;;;;;;;12.82;6.75;;;7.50;56.50;;;;;;7566120;23;20336;-68
2023/02/15 08:17:02;;;;;;;16.38;7.05;;;7.50;56.40;;;;;;7566237;23;20030;-67
2023/02/15 08:20:03;;;;;;;19.70;6.35;;;7.60;56.30;;;;;;7540228;23;20215;-67
2023/02/15 08:23:04;;;;;;;15.45;7.13;;;7.70;56.20;;;;;;7540220;23;20101;-67
2023/02/15 08:26:05;;;;;;;24.52;7.82;;;7.80;56.00;;;;;;7566075;23;20015;-67
2023/02/15 08:29:06;;;;;;;20.63;6.85;;;7.90;55.90;;;;;;7567623;23;20006;-68
2023/02/15 08:32:10;;;;;;;15.18;6.45;;;8.00;55.70;;;;;;7568120;23;20002;-68
2023/02/15 08:35:11;;;;;;;14.98;5.95;;;8.10;55.50;;;;;;7568117;23;20017;-67
2023/02/15 08:38:12;;;;;;;20.15;7.05;;;8.20;55.30;;;;;;7567491;23;20006;-67
2023/02/15 08:41:21;;;;;;;16.73;6.72;;;8.30;55.10;;;;;;7567651;23;20006;-68
2023/02/15 08:44:22;;;;;;;28.42;6.68;;;8.40;54.90;;;;;;7542386;23;20014;-67
2023/02/15 08:47:23;;;;;;;21.23;8.30;;;8.40;54.70;;;;;;7542118;23;20010;-68
2023/02/15 08:50:24;;;;;;;21.95;8.07;;;8.50;54.70;;;;;;7567767;23;20333;-67
2023/02/15 08:53:25;;;;;;;17.10;7.60;;;8.60;54.60;;;;;;7542176;23;20017;-67
2023/02/15 08:56:34;;;;;;;20.90;7.47;;;8.80;54.50;;;;;;7542042;23;20333;-67
2023/02/15 08:59:35;;;;;;;18.33;7.40;;;8.90;54.10;;;;;;7567639;23;20010;-67
2023/02/15 09:02:36;;;;;;;22.73;7.80;;;9.10;54.00;;;;;;7569148;23;20003;-67
2023/02/15 09:05:37;;;;;;;23.50;8.48;;;9.20;53.60;;;;;;7544731;23;20017;-67
2023/02/15 09:08:39;;;;;;;26.15;8.02;;;9.30;53.40;;;;;;7542698;23;20030;-68
2023/02/15 09:11:42;;;;;;;18.45;7.70;;;9.50;53.30;;;;;;7542071;23;20074;-68
2023/02/15 09:14:43;;;;;;;17.42;7.57;;;9.70;53.10;;;;;;7567350;23;20014;-69
2023/02/15 09:17:44;;;;;;;20.23;7.85;;;9.90;52.80;;;;;;7567670;23;20010;-67
2023/02/15 09:20:45;;;;;;;17.50;7.90;;;10.00;52.30;;;;;;7541932;23;20014;-67
2023/02/15 09:23:49;;;;;;;17.50;7.43;;;10.10;52.00;;;;;;7567926;23;20006;-68
2023/02/15 09:26:50;;;;;;;17.67;7.60;;;10.20;51.70;;;;;;7569601;23;20330;-68
2023/02/15 09:29:50;;;;;;;23.75;7.60;;;10.30;51.40;;;;;;7568369;23;20010;-68
2023/02/15 09:32:51;;;;;;;16.95;7.28;;;10.50;51.20;;;;;;7541449;23;20089;-67
2023/02/15 09:35:52;;;;;;;19.92;8.32;;;10.60;51.00;;;;;;7570697;23;20007;-66
2023/02/15 09:39:07;;;;;;;17.70;6.78;;;10.60;50.70;;;;;;7567004;23;20021;-67
2023/02/15 09:42:38;;;;;;;27.02;6.55;;;10.70;50.30;;;;;;7567379;23;20057;-67
2023/02/15 09:46:03;;;;;;;14.13;6.10;;;10.80;50.00;;;;;;7540916;23;20003;-68
2023/02/15 09:49:30;;;;;;;19.70;8.27;;;10.80;49.80;;;;;;7566250;23;20408;-68
2023/02/15 09:52:42;;;;;;;22.35;9.02;;;10.90;49.70;;;;;;7541259;23;20388;-67
2023/02/15 09:55:58;;;;;;;32.10;10.30;;;10.90;49.70;;;;;;7566598;23;20006;-66
2023/02/15 09:59:34;;;;;;;18.15;8.27;;;11.10;49.80;;;;;;7540389;23;20002;-68
2023/02/15 10:03:02;;;;;;;25.13;6.85;;;11.20;49.60;;;;;;7545530;23;20428;-67
2023/02/15 10:06:15;;;;;;;17.98;6.82;;;11.30;49.30;;;;;;7567405;23;20022;-68
2023/02/15 10:09:35;;;;;;;20.00;6.60;;;11.50;49.00;;;;;;7541612;23;20014;-69
2023/02/15 10:12:42;;;;;;;;;;;11.60;48.90;;;;;;7541954;23;20041;-66
2023/02/15 10:16:04;;;;;;;22.20;6.38;;;11.80;48.60;;;;;;7566585;23;20355;-65
2023/02/15 10:19:22;;;;;;;15.02;7.13;;;11.90;48.30;;;;;;7540502;23;20077;-66
2023/02/15 10:22:58;;;;;;;17.27;6.97;;;12.00;47.70;;;;;;7566895;23;20042;-67
2023/02/15 10:26:15;;;;;;;17.48;6.75;;;12.10;47.50;;;;;;7491500;23;20090;-67
2023/02/15 10:29:48;;;;;;;18.48;6.88;;;12.30;47.50;;;;;;7491181;23;20023;-68
2023/02/15 10:33:09;;;;;;;20.65;7.93;;;12.70;46.90;;;;;;7491605;23;20015;-66
2023/02/15 10:36:48;;;;;;;24.02;7.70;;;13.30;46.30;;;;;;7491199;23;20039;-67
2023/02/15 10:40:10;;;;;;;19.88;6.93;;;13.70;45.40;;;;;;7492521;23;20011;-67
2023/02/15 10:43:32;;;;;;;17.02;7.25;;;14.10;44.40;;;;;;7526590;23;20011;-68
2023/02/15 10:46:50;;;;;;;13.55;6.07;;;14.40;43.70;;;;;;7527317;23;20348;-66
2023/02/15 10:50:00;;;;;;;12.57;6.00;;;14.60;43.10;;;;;;7502263;23;20093;-66
2023/02/15 10:53:20;;;;;;;12.85;6.03;;;14.80;43.00;;;;;;7503206;23;20070;-66
2023/02/15 10:56:26;;;;;;;15.02;5.95;;;15.00;42.70;;;;;;7503069;23;20022;-67
2023/02/15 10:59:27;;;;;;;15.55;6.43;;;15.10;41.90;;;;;;7526524;23;20038;-68
2023/02/15 11:02:49;;;;;;;12.35;6.22;;;15.30;41.70;;;;;;7543672;23;20014;-67
2023/02/15 11:06:13;;;;;;;14.43;6.32;;;15.50;41.50;;;;;;7566044;23;20009;-67
2023/02/15 11:09:17;;;;;;;11.38;5.57;;;15.70;41.20;;;;;;7540864;23;20018;-67
2023/02/15 11:12:26;;;;;;;14.18;6.22;;;16.00;40.70;;;;;;7564863;23;20017;-67
2023/02/15 11:15:35;;;;;;;;;;;16.10;40.20;;;;;;7564741;23;20046;-67
2023/02/15 11:18:42;;;;;;;13.75;6.78;;;16.30;39.60;;;;;;7564044;23;19905;-67
2023/02/15 11:21:50;;;;;;;15.57;6.63;;;16.60;39.10;;;;;;7563950;23;20057;-67
2023/02/15 11:24:52;;;;;;;12.23;6.53;;;16.80;38.50;;;;;;7566343;23;20090;-66
2023/02/15 11:27:55;;;;;;;25.95;6.53;;;16.90;38.00;;;;;;7564015;23;20030;-67
2023/02/15 11:30:57;;;;;;;16.20;6.57;;;17.10;37.40;;;;;;7566342;23;20045;-67
2023/02/15 11:34:04;;;;;;;14.85;7.30;;;17.40;36.90;;;;;;7564246;23;20010;-67
2023/02/15 11:37:12;;;;;;;15.73;7.13;;;17.60;36.50;;;;;;7566134;23;20085;-67
2023/02/15 11:40:24;;;;;;;19.83;7.77;;;17.90;36.20;;;;;;7564280;23;20006;-67
2023/02/15 11:43:29;;;;;;;19.48;8.48;;;18.10;35.80;;;;;;7564709;23;20245;-67
2023/02/15 11:46:30;;;;;;;16.77;8.52;;;18.30;35.60;;;;;;7566190;23;20039;-67
2023/02/15 11:49:33;;;;;;;26.80;10.23;;;18.70;35.10;;;;;;7565352;23;20049;-66
2023/02/15 11:52:34;;;;;;;21.90;10.02;;;19.10;34.60;;;;;;7566061;23;20014;-66
2023/02/15 11:55:35;;;;;;;18.85;8.98;;;19.40;33.90;;;;;;7566119;23;20009;-68
2023/02/15 11:58:51;;;;;;;18.63;9.10;;;19.60;33.60;;;;;;7565573;23;20002;-66
2023/02/15 12:01:52;;;;;;;24.65;9.73;;;19.70;33.60;;;;;;7565286;23;20329;-67
2023/02/15 12:04:57;;;;;;;26.35;10.20;;;20.00;33.30;;;;;;7570127;23;20151;-67
2023/02/15 12:08:09;;;;;;;33.92;10.45;;;20.30;32.90;;;;;;7569441;23;20003;-67
2023/02/15 12:11:17;;;;;;;26.70;9.82;;;20.60;32.70;;;;;;7568955;23;20053;-67
2023/02/15 12:14:18;;;;;;;25.25;11.00;;;20.80;32.30;;;;;;7568092;23;20018;-67
2023/02/15 12:17:23;;;;;;;25.40;10.45;;;21.00;32.20;;;;;;7567846;23;20328;-68
2023/02/15 12:20:23;;;;;;;24.92;10.10;;;21.30;31.90;;;;;;7567566;23;20021;-67
2023/02/15 12:23:28;;;;;;;23.17;10.10;;;21.40;31.60;;;;;;7542608;23;20003;-67
2023/02/15 12:26:34;;;;;;;28.08;8.25;;;21.40;31.50;;;;;;7568337;23;20051;-66
2023/02/15 12:29:45;;;;;;;20.85;8.20;;;21.60;31.10;;;;;;7568017;23;20014;-67
2023/02/15 12:32:54;;;;;;;21.60;8.32;;;21.60;30.50;;;;;;7568591;23;20097;-67
2023/02/15 12:36:09;;;;;;;24.50;9.13;;;21.20;30.60;;;;;;7566724;23;20022;-68
2023/02/15 12:39:13;;;;;;;22.50;9.82;;;20.90;31.50;;;;;;7565544;23;20015;-68
2023/02/15 12:42:19;;;;;;;27.63;11.27;;;21.00;31.80;;;;;;7565965;23;20101;-68
2023/02/15 12:45:24;;;;;;;28.10;11.10;;;21.00;32.10;;;;;;7567894;23;20013;-67
2023/02/15 12:48:25;;;;;;;24.48;10.57;;;21.10;32.30;;;;;;7566271;23;20002;-68
2023/02/15 12:51:27;;;;;;;26.67;10.88;;;21.10;32.60;;;;;;7567232;23;20041;-68
2023/02/15 12:54:42;;;;;;;24.25;10.27;;;20.80;33.10;;;;;;7567725;23;20030;-67
2023/02/15 12:57:46;;;;;;;27.75;9.82;;;20.50;33.50;;;;;;7565782;23;20128;-67
2023/02/15 13:00:48;;;;;;;22.85;9.82;;;20.30;33.80;;;;;;7567404;23;20412;-67
2023/02/15 13:03:57;;;;;;;25.55;8.90;;;19.90;34.30;;;;;;7567800;23;20007;-68
2023/02/15 13:07:02;;;;;;;16.50;8.27;;;19.50;34.60;;;;;;7567731;23;20006;-67
2023/02/15 13:10:04;;;;;;;22.75;8.45;;;19.10;35.00;;;;;;7567859;23;20417;-66
2023/02/15 13:13:18;;;;;;;17.52;8.07;;;18.80;35.50;;;;;;7568435;23;20022;-68
2023/02/15 13:16:44;;;;;;;23.38;7.78;;;18.50;35.80;;;;;;7569578;23;20161;-67
2023/02/15 13:19:49;;;;;;;20.15;7.60;;;18.50;36.00;;;;;;7577672;23;20010;-67
2023/02/15 13:22:56;;;;;;;16.67;7.55;;;18.40;36.10;;;;;;7572246;23;20010;-66
2023/02/15 13:26:02;;;;;;;13.40;5.93;;;18.30;36.10;;;;;;7568612;23;20368;-67
2023/02/15 13:29:15;;;;;;;19.23;6.38;;;18.30;35.90;;;;;;7568026;23;20061;-68
2023/02/15 13:32:32;;;;;;;13.63;5.88;;;18.30;35.70;;;;;;7567332;23;20014;-67
2023/02/15 13:35:58;;;;;;;14.95;5.93;;;18.30;35.60;;;;;;7566745;23;20017;-67
2023/02/15 13:39:36;;;;;;;15.68;5.93;;;18.30;35.40;;;;;;7566266;23;20093;-68
2023/02/15 13:43:13;;;;;;;13.02;5.78;;;18.20;35.30;;;;;;7566535;23;20089;-66
2023/02/15 13:46:49;;;;;;;15.30;5.38;;;18.30;35.20;;;;;;7492216;23;20015;-68
2023/02/15 13:50:23;;;;;;;11.43;4.97;;;18.30;34.80;;;;;;7456334;23;20008;-67
2023/02/15 13:53:39;;;;;;;10.40;4.65;;;18.30;34.50;;;;;;7433090;23;20008;-69
2023/02/15 13:56:49;;;;;;;14.98;6.57;;;18.30;34.50;;;;;;7456834;23;20414;-68
2023/02/15 14:00:16;;;;;;;14.70;6.85;;;18.40;34.50;;;;;;7456407;23;20058;-67
2023/02/15 14:03:49;;;;;;;12.88;5.75;;;18.50;34.70;;;;;;7451837;23;20016;-67
2023/02/15 14:07:17;;;;;;;11.82;4.50;;;18.60;34.70;;;;;;7455826;23;20030;-67
2023/02/15 14:10:27;;;;;;;14.93;5.22;;;18.60;34.20;;;;;;7455952;23;20392;-68
2023/02/15 14:13:42;;;;;;;11.02;6.13;;;18.60;33.90;;;;;;7455989;23;20012;-66
2023/02/15 14:17:03;;;;;;;12.70;5.22;;;18.70;34.00;;;;;;7456659;23;20023;-67
2023/02/15 14:20:42;;;;;;;18.95;6.25;;;18.70;33.90;;;;;;7456326;23;20026;-67
2023/02/15 14:23:56;;;;;;;14.38;5.47;;;18.80;33.80;;;;;;7513962;23;20223;-67
2023/02/15 14:26:57;;;;;;;21.55;5.43;;;18.80;33.70;;;;;;7566522;23;20082;-67
2023/02/15 14:30:01;;;;;;;10.60;5.05;;;18.80;33.60;;;;;;7540798;23;20014;-66
2023/02/15 14:33:34;;;;;;;20.20;5.55;;;18.80;33.60;;;;;;7566382;23;20014;-68
2023/02/15 14:36:35;;;;;;;10.38;5.15;;;18.80;33.70;;;;;;7540910;23;20088;-68
2023/02/15 14:44:00;;;;;;;18.08;4.95;;;18.70;33.50;;;;;;7551756;23;20483;-67
2023/02/15 14:47:09;;;;;;;19.67;4.95;;;18.60;33.70;;;;;;7544444;23;20431;-69
2023/02/15 14:50:37;;;;;;;10.50;4.90;;;18.60;33.90;;;;;;7540351;23;20020;-68
2023/02/15 14:53:39;;;;;;;21.08;6.50;;;18.60;33.80;;;;;;7539986;23;20448;-67
2023/02/15 14:56:40;;;;;;;13.60;5.68;;;18.60;33.60;;;;;;7540361;23;20042;-66
2023/02/15 14:59:58;;;;;;;12.60;4.63;;;18.60;33.70;;;;;;7539893;23;20097;-67
2023/02/15 15:03:00;;;;;;;15.15;6.03;;;18.60;33.70;;;;;;7566111;23;20002;-67
2023/02/15 15:06:04;;;;;;;11.30;5.63;;;18.60;33.70;;;;;;7541112;23;20012;-68
2023/02/15 15:09:22;;;;;;;18.85;6.05;;;18.60;33.60;;;;;;7566184;23;20090;-67
2023/02/15 15:12:26;;;;;;;12.47;5.33;;;18.70;33.60;;;;;;7566075;23;20006;-67
2023/02/15 15:15:26;;;;;;;14.60;5.88;;;18.70;33.60;;;;;;7540099;23;20068;-67
2023/02/15 15:18:47;;;;;;;14.32;6.10;;;18.80;33.60;;;;;;7565849;23;20006;-68
2023/02/15 15:21:54;;;;;;;13.27;5.38;;;18.70;33.70;;;;;;7566421;23;20097;-68
2023/02/15 15:25:03;;;;;;;12.30;5.68;;;18.80;33.70;;;;;;7566483;23;20053;-67
2023/02/15 15:28:06;;;;;;;14.65;5.65;;;18.70;33.60;;;;;;7568567;23;20041;-67
2023/02/15 15:31:26;;;;;;;25.55;5.85;;;18.70;33.60;;;;;;7569067;23;20013;-66
2023/02/15 15:34:48;;;;;;;15.00;5.40;;;18.60;33.60;;;;;;7566328;23;20014;-67
2023/02/15 15:38:13;;;;;;;12.77;5.28;;;18.60;33.60;;;;;;7541558;23;20017;-67
2023/02/15 15:41:41;;;;;;;18.40;6.30;;;18.50;33.70;;;;;;7568926;23;20022;-68
2023/02/15 15:45:00;;;;;;;14.82;6.50;;;18.50;33.80;;;;;;7568866;23;20440;-68
2023/02/15 15:48:36;;;;;;;15.73;5.07;;;18.50;33.80;;;;;;7568129;23;20013;-67
2023/02/15 15:51:41;;;;;;;14.50;4.95;;;18.40;34.00;;;;;;7492856;23;20492;-69
2023/02/15 15:54:44;;;;;;;10.48;4.93;;;18.30;33.90;;;;;;7469502;23;20135;-66
2023/02/15 15:57:49;;;;;;;13.45;5.60;;;18.20;34.10;;;;;;7469275;23;20693;-66
2023/02/15 16:00:57;;;;;;;10.07;5.22;;;18.20;34.30;;;;;;7469605;23;20513;-66
2023/02/15 16:03:59;;;;;;;15.50;5.95;;;18.10;34.60;;;;;;7493542;23;20146;-67
2023/02/15 16:07:19;;;;;;;21.77;6.28;;;18.00;34.90;;;;;;7469282;23;20387;-67
2023/02/15 16:10:25;;;;;;;13.10;6.32;;;18.00;35.30;;;;;;7493487;23;20465;-67
2023/02/15 16:13:26;;;;;;;16.52;6.30;;;17.90;35.60;;;;;;7469771;23;20018;-66
2023/02/15 16:16:29;;;;;;;17.67;5.43;;;17.80;35.90;;;;;;7493567;23;20326;-68
2023/02/15 16:19:38;;;;;;;12.85;5.63;;;17.60;36.20;;;;;;7468909;23;20082;-68
2023/02/15 16:22:38;;;;;;;15.35;6.30;;;17.50;36.40;;;;;;7492491;23;20085;-66
2023/02/15 16:25:54;;;;;;;15.32;6.38;;;17.50;36.70;;;;;;7469512;23;20012;-67
2023/02/15 16:28:55;;;;;;;12.85;6.22;;;17.40;36.80;;;;;;7536702;23;20011;-68
2023/02/15 16:32:00;;;;;;;13.70;6.60;;;17.40;37.10;;;;;;7567525;23;20006;-66
2023/02/15 16:35:02;;;;;;;16.50;7.00;;;17.20;37.20;;;;;;7567883;23;20065;-66
2023/02/15 16:38:04;;;;;;;17.23;6.60;;;17.10;37.50;;;;;;7517248;23;20018;-67
2023/02/15 16:41:05;;;;;;;16.33;6.05;;;17.10;37.80;;;;;;7518171;23;20424;-66
2023/02/15 16:44:14;;;;;;;15.25;6.97;;;17.00;38.10;;;;;;7543838;23;20328;-66